sensor_id;sensor_type;location;lat;lon;timestamp;P1;durP1;ratioP1;P2;durP2;ratioP2
22284;SDS011;11311;52.192;20.900;2023-03-21T00:01:11;47.60;;;32.88;;
22284;SDS011;11311;52.192;20.900;2023-03-21T00:03:41;53.72;;;32.63;;
22284;SDS011;11311;52.192;20.900;2023-03-21T00:06:11;55.17;;;34.95;;
22284;SDS011;11311;52.192;20.900;2023-03-21T00:08:40;48.42;;;31.17;;
22284;SDS011;11311;52.192;20.900;2023-03-21T00:11:10;51.72;;;33.88;;
22284;SDS011;11311;52.192;20.900;2023-03-21T00:13:41;48.33;;;32.00;;
22284;SDS011;11311;52.192;20.900;2023-03-21T00:16:11;55.42;;;34.95;;
22284;SDS011;11311;52.192;20.900;2023-03-21T00:18:55;51.70;;;32.83;;
22284;SDS011;11311;52.192;20.900;2023-03-21T00:21:24;54.13;;;33.88;;
22284;SDS011;11311;52.192;20.900;2023-03-21T00:24:19;54.88;;;33.55;;
22284;SDS011;11311;52.192;20.900;2023-03-21T00:26:49;56.33;;;35.40;;
22284;SDS011;11311;52.192;20.900;2023-03-21T00:29:20;53.65;;;34.75;;
22284;SDS011;11311;52.192;20.900;2023-03-21T00:31:49;52.67;;;33.80;;
22284;SDS011;11311;52.192;20.900;2023-03-21T00:34:18;58.67;;;34.92;;
22284;SDS011;11311;52.192;20.900;2023-03-21T00:37:07;58.05;;;36.50;;
22284;SDS011;11311;52.192;20.900;2023-03-21T00:39:36;62.78;;;36.45;;
22284;SDS011;11311;52.192;20.900;2023-03-21T00:42:05;53.25;;;35.25;;
22284;SDS011;11311;52.192;20.900;2023-03-21T00:44:37;59.85;;;35.65;;
22284;SDS011;11311;52.192;20.900;2023-03-21T00:47:08;62.88;;;35.33;;
22284;SDS011;11311;52.192;20.900;2023-03-21T00:49:37;53.70;;;33.80;;
22284;SDS011;11311;52.192;20.900;2023-03-21T00:52:08;59.43;;;36.53;;
22284;SDS011;11311;52.192;20.900;2023-03-21T00:54:50;60.00;;;34.97;;
22284;SDS011;11311;52.192;20.900;2023-03-21T00:57:19;59.35;;;34.65;;
22284;SDS011;11311;52.192;20.900;2023-03-21T01:00:07;52.13;;;33.97;;
22284;SDS011;11311;52.192;20.900;2023-03-21T01:02:38;49.72;;;31.08;;
22284;SDS011;11311;52.192;20.900;2023-03-21T01:05:11;51.65;;;32.63;;
22284;SDS011;11311;52.192;20.900;2023-03-21T01:08:00;56.00;;;33.53;;
22284;SDS011;11311;52.192;20.900;2023-03-21T01:10:40;50.17;;;32.03;;
22284;SDS011;11311;52.192;20.900;2023-03-21T01:13:11;55.40;;;33.15;;
22284;SDS011;11311;52.192;20.900;2023-03-21T01:15:43;55.65;;;31.83;;
22284;SDS011;11311;52.192;20.900;2023-03-21T01:18:13;50.70;;;33.25;;
22284;SDS011;11311;52.192;20.900;2023-03-21T01:23:12;54.95;;;34.50;;
22284;SDS011;11311;52.192;20.900;2023-03-21T01:25:42;52.47;;;33.30;;
22284;SDS011;11311;52.192;20.900;2023-03-21T01:28:11;59.28;;;34.00;;
22284;SDS011;11311;52.192;20.900;2023-03-21T01:30:44;52.85;;;33.65;;
22284;SDS011;11311;52.192;20.900;2023-03-21T01:33:14;55.35;;;32.78;;
22284;SDS011;11311;52.192;20.900;2023-03-21T01:35:44;56.25;;;34.00;;
22284;SDS011;11311;52.192;20.900;2023-03-21T01:38:28;56.95;;;34.40;;
22284;SDS011;11311;52.192;20.900;2023-03-21T01:40:58;49.95;;;31.05;;
22284;SDS011;11311;52.192;20.900;2023-03-21T01:43:39;52.53;;;33.90;;
22284;SDS011;11311;52.192;20.900;2023-03-21T01:49:39;46.57;;;29.27;;
22284;SDS011;11311;52.192;20.900;2023-03-21T01:52:18;41.17;;;27.57;;
22284;SDS011;11311;52.192;20.900;2023-03-21T01:55:03;41.35;;;25.75;;
22284;SDS011;11311;52.192;20.900;2023-03-21T01:58:04;44.60;;;27.45;;
22284;SDS011;11311;52.192;20.900;2023-03-21T02:00:41;43.35;;;26.73;;
22284;SDS011;11311;52.192;20.900;2023-03-21T02:03:27;40.55;;;26.17;;
22284;SDS011;11311;52.192;20.900;2023-03-21T02:06:24;38.10;;;26.02;;
22284;SDS011;11311;52.192;20.900;2023-03-21T02:09:07;41.08;;;24.48;;
22284;SDS011;11311;52.192;20.900;2023-03-21T02:11:38;41.25;;;25.83;;
22284;SDS011;11311;52.192;20.900;2023-03-21T02:14:08;45.13;;;27.92;;
22284;SDS011;11311;52.192;20.900;2023-03-21T02:16:59;44.33;;;28.65;;
22284;SDS011;11311;52.192;20.900;2023-03-21T02:22:52;44.15;;;29.23;;
22284;SDS011;11311;52.192;20.900;2023-03-21T02:28:38;50.10;;;31.20;;
22284;SDS011;11311;52.192;20.900;2023-03-21T02:34:08;53.47;;;30.45;;
22284;SDS011;11311;52.192;20.900;2023-03-21T02:36:51;48.08;;;28.60;;
22284;SDS011;11311;52.192;20.900;2023-03-21T02:39:28;45.80;;;26.83;;
22284;SDS011;11311;52.192;20.900;2023-03-21T02:42:02;45.67;;;28.98;;
22284;SDS011;11311;52.192;20.900;2023-03-21T02:44:37;48.72;;;30.20;;
22284;SDS011;11311;52.192;20.900;2023-03-21T02:47:10;47.88;;;30.48;;
22284;SDS011;11311;52.192;20.900;2023-03-21T02:49:42;42.78;;;28.75;;
22284;SDS011;11311;52.192;20.900;2023-03-21T02:52:17;47.33;;;29.65;;
22284;SDS011;11311;52.192;20.900;2023-03-21T02:55:07;47.30;;;30.05;;
22284;SDS011;11311;52.192;20.900;2023-03-21T02:57:48;46.63;;;30.45;;
22284;SDS011;11311;52.192;20.900;2023-03-21T03:00:19;47.10;;;31.35;;
22284;SDS011;11311;52.192;20.900;2023-03-21T03:02:51;52.90;;;32.72;;
22284;SDS011;11311;52.192;20.900;2023-03-21T03:05:36;51.58;;;30.35;;
22284;SDS011;11311;52.192;20.900;2023-03-21T03:08:14;43.95;;;30.10;;
22284;SDS011;11311;52.192;20.900;2023-03-21T03:11:02;42.50;;;28.48;;
22284;SDS011;11311;52.192;20.900;2023-03-21T03:13:58;48.03;;;30.70;;
22284;SDS011;11311;52.192;20.900;2023-03-21T03:17:08;44.30;;;28.10;;
22284;SDS011;11311;52.192;20.900;2023-03-21T03:19:53;39.53;;;26.20;;
22284;SDS011;11311;52.192;20.900;2023-03-21T03:22:45;39.72;;;24.58;;
22284;SDS011;11311;52.192;20.900;2023-03-21T03:25:21;37.92;;;27.45;;
22284;SDS011;11311;52.192;20.900;2023-03-21T03:28:08;40.80;;;27.80;;
22284;SDS011;11311;52.192;20.900;2023-03-21T03:33:27;40.28;;;26.23;;
22284;SDS011;11311;52.192;20.900;2023-03-21T03:35:58;40.58;;;27.80;;
22284;SDS011;11311;52.192;20.900;2023-03-21T03:38:35;41.60;;;28.30;;
22284;SDS011;11311;52.192;20.900;2023-03-21T03:41:08;39.90;;;25.90;;
22284;SDS011;11311;52.192;20.900;2023-03-21T03:43:44;38.33;;;26.98;;
22284;SDS011;11311;52.192;20.900;2023-03-21T03:46:18;42.58;;;27.67;;
22284;SDS011;11311;52.192;20.900;2023-03-21T03:48:51;42.97;;;28.70;;
22284;SDS011;11311;52.192;20.900;2023-03-21T03:51:24;38.22;;;28.35;;
22284;SDS011;11311;52.192;20.900;2023-03-21T03:54:25;43.75;;;29.45;;
22284;SDS011;11311;52.192;20.900;2023-03-21T03:56:59;44.33;;;30.08;;
22284;SDS011;11311;52.192;20.900;2023-03-21T03:59:28;37.78;;;27.90;;
22284;SDS011;11311;52.192;20.900;2023-03-21T04:02:10;41.53;;;29.45;;
22284;SDS011;11311;52.192;20.900;2023-03-21T04:04:38;36.97;;;26.42;;
22284;SDS011;11311;52.192;20.900;2023-03-21T04:07:08;34.28;;;25.15;;
22284;SDS011;11311;52.192;20.900;2023-03-21T04:09:38;40.10;;;27.63;;
22284;SDS011;11311;52.192;20.900;2023-03-21T04:12:16;39.28;;;26.45;;
22284;SDS011;11311;52.192;20.900;2023-03-21T04:15:09;38.67;;;27.15;;
22284;SDS011;11311;52.192;20.900;2023-03-21T04:17:43;36.17;;;24.70;;
22284;SDS011;11311;52.192;20.900;2023-03-21T04:20:13;35.85;;;25.10;;
22284;SDS011;11311;52.192;20.900;2023-03-21T04:22:52;36.65;;;25.55;;
22284;SDS011;11311;52.192;20.900;2023-03-21T04:25:23;34.85;;;23.92;;
22284;SDS011;11311;52.192;20.900;2023-03-21T04:28:04;35.17;;;24.60;;
22284;SDS011;11311;52.192;20.900;2023-03-21T04:30:58;35.75;;;25.42;;
22284;SDS011;11311;52.192;20.900;2023-03-21T04:33:50;35.35;;;24.70;;
22284;SDS011;11311;52.192;20.900;2023-03-21T04:36:20;35.15;;;24.63;;
22284;SDS011;11311;52.192;20.900;2023-03-21T04:38:57;36.33;;;25.35;;
22284;SDS011;11311;52.192;20.900;2023-03-21T04:41:29;36.95;;;26.60;;
22284;SDS011;11311;52.192;20.900;2023-03-21T04:44:00;37.33;;;26.83;;
22284;SDS011;11311;52.192;20.900;2023-03-21T04:48:57;38.22;;;25.10;;
22284;SDS011;11311;52.192;20.900;2023-03-21T04:51:26;34.80;;;24.88;;
22284;SDS011;11311;52.192;20.900;2023-03-21T04:53:55;37.78;;;26.77;;
22284;SDS011;11311;52.192;20.900;2023-03-21T04:56:24;37.20;;;25.55;;
22284;SDS011;11311;52.192;20.900;2023-03-21T04:59:01;38.95;;;26.10;;
22284;SDS011;11311;52.192;20.900;2023-03-21T05:01:32;36.42;;;25.63;;
22284;SDS011;11311;52.192;20.900;2023-03-21T05:04:02;37.53;;;28.15;;
22284;SDS011;11311;52.192;20.900;2023-03-21T05:06:33;39.60;;;27.10;;
22284;SDS011;11311;52.192;20.900;2023-03-21T05:09:03;41.05;;;28.13;;
22284;SDS011;11311;52.192;20.900;2023-03-21T05:11:35;41.80;;;27.08;;
22284;SDS011;11311;52.192;20.900;2023-03-21T05:14:07;37.50;;;25.88;;
22284;SDS011;11311;52.192;20.900;2023-03-21T05:16:38;38.05;;;27.48;;
22284;SDS011;11311;52.192;20.900;2023-03-21T05:19:16;41.85;;;29.08;;
22284;SDS011;11311;52.192;20.900;2023-03-21T05:21:47;41.20;;;27.10;;
22284;SDS011;11311;52.192;20.900;2023-03-21T05:24:20;38.78;;;27.10;;
22284;SDS011;11311;52.192;20.900;2023-03-21T05:26:50;44.80;;;28.33;;
22284;SDS011;11311;52.192;20.900;2023-03-21T05:29:28;37.97;;;27.35;;
22284;SDS011;11311;52.192;20.900;2023-03-21T05:32:04;41.83;;;27.15;;
22284;SDS011;11311;52.192;20.900;2023-03-21T05:34:33;42.38;;;27.75;;
22284;SDS011;11311;52.192;20.900;2023-03-21T05:37:02;41.45;;;27.13;;
22284;SDS011;11311;52.192;20.900;2023-03-21T05:39:49;45.20;;;27.70;;
22284;SDS011;11311;52.192;20.900;2023-03-21T05:42:29;36.35;;;25.60;;
22284;SDS011;11311;52.192;20.900;2023-03-21T05:45:00;39.72;;;25.00;;
22284;SDS011;11311;52.192;20.900;2023-03-21T05:47:32;34.95;;;25.38;;
22284;SDS011;11311;52.192;20.900;2023-03-21T05:50:02;42.67;;;25.55;;
22284;SDS011;11311;52.192;20.900;2023-03-21T05:52:31;34.00;;;24.42;;
22284;SDS011;11311;52.192;20.900;2023-03-21T05:55:08;33.22;;;24.17;;
22284;SDS011;11311;52.192;20.900;2023-03-21T05:57:37;38.53;;;23.92;;
22284;SDS011;11311;52.192;20.900;2023-03-21T06:00:18;36.97;;;22.50;;
22284;SDS011;11311;52.192;20.900;2023-03-21T06:03:03;31.98;;;22.60;;
22284;SDS011;11311;52.192;20.900;2023-03-21T06:05:55;31.02;;;21.73;;
22284;SDS011;11311;52.192;20.900;2023-03-21T06:08:31;28.55;;;22.23;;
22284;SDS011;11311;52.192;20.900;2023-03-21T06:11:01;33.30;;;23.42;;
22284;SDS011;11311;52.192;20.900;2023-03-21T06:13:32;27.80;;;20.83;;
22284;SDS011;11311;52.192;20.900;2023-03-21T06:16:03;26.52;;;19.80;;
22284;SDS011;11311;52.192;20.900;2023-03-21T06:18:34;34.22;;;21.75;;
22284;SDS011;11311;52.192;20.900;2023-03-21T06:21:22;28.52;;;20.25;;
22284;SDS011;11311;52.192;20.900;2023-03-21T06:23:53;28.13;;;21.10;;
22284;SDS011;11311;52.192;20.900;2023-03-21T06:26:22;25.40;;;20.08;;
22284;SDS011;11311;52.192;20.900;2023-03-21T06:28:52;30.40;;;20.10;;
22284;SDS011;11311;52.192;20.900;2023-03-21T06:31:23;30.33;;;20.83;;
22284;SDS011;11311;52.192;20.900;2023-03-21T06:33:59;24.80;;;19.42;;
22284;SDS011;11311;52.192;20.900;2023-03-21T06:36:28;26.30;;;19.50;;
22284;SDS011;11311;52.192;20.900;2023-03-21T06:38:57;25.88;;;19.45;;
22284;SDS011;11311;52.192;20.900;2023-03-21T06:41:27;33.30;;;19.90;;
22284;SDS011;11311;52.192;20.900;2023-03-21T06:44:01;26.27;;;18.55;;
22284;SDS011;11311;52.192;20.900;2023-03-21T06:46:38;26.23;;;18.95;;
22284;SDS011;11311;52.192;20.900;2023-03-21T06:49:07;25.55;;;19.63;;
22284;SDS011;11311;52.192;20.900;2023-03-21T06:51:36;32.97;;;20.42;;
22284;SDS011;11311;52.192;20.900;2023-03-21T06:54:11;23.33;;;17.27;;
22284;SDS011;11311;52.192;20.900;2023-03-21T06:56:47;26.38;;;19.08;;
22284;SDS011;11311;52.192;20.900;2023-03-21T06:59:22;25.25;;;18.33;;
22284;SDS011;11311;52.192;20.900;2023-03-21T07:02:00;23.67;;;19.00;;
22284;SDS011;11311;52.192;20.900;2023-03-21T07:04:31;25.30;;;18.92;;
22284;SDS011;11311;52.192;20.900;2023-03-21T07:07:01;25.25;;;17.95;;
22284;SDS011;11311;52.192;20.900;2023-03-21T07:09:30;23.95;;;18.27;;
22284;SDS011;11311;52.192;20.900;2023-03-21T07:12:03;25.38;;;19.27;;
22284;SDS011;11311;52.192;20.900;2023-03-21T07:14:55;22.90;;;16.38;;
22284;SDS011;11311;52.192;20.900;2023-03-21T07:17:27;23.65;;;17.60;;
22284;SDS011;11311;52.192;20.900;2023-03-21T07:19:56;20.15;;;16.30;;
22284;SDS011;11311;52.192;20.900;2023-03-21T07:22:25;23.55;;;17.83;;
22284;SDS011;11311;52.192;20.900;2023-03-21T07:24:54;23.55;;;17.20;;
22284;SDS011;11311;52.192;20.900;2023-03-21T07:27:37;21.98;;;16.52;;
22284;SDS011;11311;52.192;20.900;2023-03-21T07:30:08;20.90;;;15.65;;
22284;SDS011;11311;52.192;20.900;2023-03-21T07:32:39;18.88;;;15.48;;
22284;SDS011;11311;52.192;20.900;2023-03-21T07:35:09;18.95;;;15.10;;
22284;SDS011;11311;52.192;20.900;2023-03-21T07:37:40;14.63;;;13.13;;
22284;SDS011;11311;52.192;20.900;2023-03-21T07:40:12;19.75;;;14.55;;
22284;SDS011;11311;52.192;20.900;2023-03-21T07:42:41;18.85;;;13.75;;
22284;SDS011;11311;52.192;20.900;2023-03-21T07:45:12;18.45;;;12.55;;
22284;SDS011;11311;52.192;20.900;2023-03-21T07:47:48;16.08;;;13.07;;
22284;SDS011;11311;52.192;20.900;2023-03-21T07:52:46;12.55;;;11.23;;
22284;SDS011;11311;52.192;20.900;2023-03-21T07:57:45;14.98;;;11.90;;
22284;SDS011;11311;52.192;20.900;2023-03-21T08:00:14;11.70;;;10.50;;
22284;SDS011;11311;52.192;20.900;2023-03-21T08:02:51;15.50;;;12.60;;
22284;SDS011;11311;52.192;20.900;2023-03-21T08:05:25;15.02;;;12.10;;
22284;SDS011;11311;52.192;20.900;2023-03-21T08:07:55;12.68;;;11.23;;
22284;SDS011;11311;52.192;20.900;2023-03-21T08:10:24;12.35;;;11.05;;
22284;SDS011;11311;52.192;20.900;2023-03-21T08:12:54;12.10;;;10.37;;
22284;SDS011;11311;52.192;20.900;2023-03-21T08:15:23;14.18;;;10.30;;
22284;SDS011;11311;52.192;20.900;2023-03-21T08:17:53;11.93;;;10.25;;
22284;SDS011;11311;52.192;20.900;2023-03-21T08:20:22;10.75;;;9.70;;
22284;SDS011;11311;52.192;20.900;2023-03-21T08:22:51;14.35;;;10.82;;
22284;SDS011;11311;52.192;20.900;2023-03-21T08:25:20;12.05;;;10.45;;
22284;SDS011;11311;52.192;20.900;2023-03-21T08:27:50;13.25;;;11.32;;
22284;SDS011;11311;52.192;20.900;2023-03-21T08:30:20;11.95;;;10.70;;
22284;SDS011;11311;52.192;20.900;2023-03-21T08:32:57;14.68;;;10.15;;
22284;SDS011;11311;52.192;20.900;2023-03-21T08:35:27;13.57;;;10.55;;
22284;SDS011;11311;52.192;20.900;2023-03-21T08:37:57;11.27;;;9.90;;
22284;SDS011;11311;52.192;20.900;2023-03-21T08:40:26;10.20;;;9.00;;
22284;SDS011;11311;52.192;20.900;2023-03-21T08:42:56;11.02;;;9.85;;
22284;SDS011;11311;52.192;20.900;2023-03-21T08:45:25;9.75;;;8.77;;
22284;SDS011;11311;52.192;20.900;2023-03-21T08:47:54;9.52;;;8.15;;
22284;SDS011;11311;52.192;20.900;2023-03-21T08:50:25;11.07;;;9.88;;
22284;SDS011;11311;52.192;20.900;2023-03-21T08:52:56;11.13;;;9.82;;
22284;SDS011;11311;52.192;20.900;2023-03-21T08:55:25;13.30;;;9.48;;
22284;SDS011;11311;52.192;20.900;2023-03-21T08:57:54;11.15;;;9.38;;
22284;SDS011;11311;52.192;20.900;2023-03-21T09:00:24;10.88;;;9.73;;
22284;SDS011;11311;52.192;20.900;2023-03-21T09:02:53;10.77;;;9.65;;
22284;SDS011;11311;52.192;20.900;2023-03-21T09:05:26;10.60;;;9.50;;
22284;SDS011;11311;52.192;20.900;2023-03-21T09:07:55;11.00;;;8.90;;
22284;SDS011;11311;52.192;20.900;2023-03-21T09:10:24;10.23;;;9.20;;
22284;SDS011;11311;52.192;20.900;2023-03-21T09:12:53;11.40;;;9.73;;
22284;SDS011;11311;52.192;20.900;2023-03-21T09:15:23;10.98;;;9.55;;
22284;SDS011;11311;52.192;20.900;2023-03-21T09:17:55;10.88;;;9.20;;
22284;SDS011;11311;52.192;20.900;2023-03-21T09:20:26;12.48;;;10.55;;
22284;SDS011;11311;52.192;20.900;2023-03-21T09:22:58;11.95;;;10.43;;
22284;SDS011;11311;52.192;20.900;2023-03-21T09:25:29;14.18;;;10.70;;
22284;SDS011;11311;52.192;20.900;2023-03-21T09:27:58;10.45;;;9.45;;
22284;SDS011;11311;52.192;20.900;2023-03-21T09:30:28;10.98;;;9.88;;
22284;SDS011;11311;52.192;20.900;2023-03-21T09:32:57;13.80;;;10.07;;
22284;SDS011;11311;52.192;20.900;2023-03-21T09:35:28;11.52;;;9.45;;
22284;SDS011;11311;52.192;20.900;2023-03-21T09:37:57;9.75;;;8.75;;
22284;SDS011;11311;52.192;20.900;2023-03-21T09:40:30;10.90;;;9.10;;
22284;SDS011;11311;52.192;20.900;2023-03-21T09:43:13;10.65;;;9.43;;
22284;SDS011;11311;52.192;20.900;2023-03-21T09:45:49;11.48;;;10.00;;
22284;SDS011;11311;52.192;20.900;2023-03-21T09:48:23;11.48;;;9.85;;
22284;SDS011;11311;52.192;20.900;2023-03-21T09:51:12;12.63;;;9.52;;
22284;SDS011;11311;52.192;20.900;2023-03-21T09:53:44;12.02;;;8.70;;
22284;SDS011;11311;52.192;20.900;2023-03-21T09:56:15;10.50;;;8.50;;
22284;SDS011;11311;52.192;20.900;2023-03-21T09:58:45;11.98;;;9.02;;
22284;SDS011;11311;52.192;20.900;2023-03-21T10:01:20;15.65;;;9.05;;
22284;SDS011;11311;52.192;20.900;2023-03-21T10:03:56;16.48;;;8.73;;
22284;SDS011;11311;52.192;20.900;2023-03-21T10:06:29;10.68;;;9.35;;
22284;SDS011;11311;52.192;20.900;2023-03-21T10:08:59;12.30;;;9.48;;
22284;SDS011;11311;52.192;20.900;2023-03-21T10:11:37;13.25;;;9.90;;
22284;SDS011;11311;52.192;20.900;2023-03-21T10:14:12;13.75;;;9.60;;
22284;SDS011;11311;52.192;20.900;2023-03-21T10:16:44;11.68;;;9.20;;
22284;SDS011;11311;52.192;20.900;2023-03-21T10:19:16;16.42;;;10.32;;
22284;SDS011;11311;52.192;20.900;2023-03-21T10:21:47;12.60;;;11.30;;
22284;SDS011;11311;52.192;20.900;2023-03-21T10:24:30;13.00;;;9.73;;
22284;SDS011;11311;52.192;20.900;2023-03-21T10:27:00;12.55;;;10.23;;
22284;SDS011;11311;52.192;20.900;2023-03-21T10:29:31;8.85;;;7.93;;
22284;SDS011;11311;52.192;20.900;2023-03-21T10:32:03;10.32;;;9.20;;
22284;SDS011;11311;52.192;20.900;2023-03-21T10:37:50;13.20;;;8.45;;
22284;SDS011;11311;52.192;20.900;2023-03-21T10:40:19;10.20;;;9.00;;
22284;SDS011;11311;52.192;20.900;2023-03-21T10:42:48;9.98;;;8.38;;
22284;SDS011;11311;52.192;20.900;2023-03-21T10:45:17;14.43;;;8.85;;
22284;SDS011;11311;52.192;20.900;2023-03-21T10:47:48;9.05;;;8.02;;
22284;SDS011;11311;52.192;20.900;2023-03-21T10:52:54;7.72;;;6.47;;
22284;SDS011;11311;52.192;20.900;2023-03-21T10:55:27;7.07;;;6.38;;
22284;SDS011;11311;52.192;20.900;2023-03-21T10:57:58;8.50;;;6.35;;
22284;SDS011;11311;52.192;20.900;2023-03-21T11:00:33;9.05;;;6.70;;
22284;SDS011;11311;52.192;20.900;2023-03-21T11:03:03;8.15;;;6.03;;
22284;SDS011;11311;52.192;20.900;2023-03-21T11:05:33;7.15;;;6.45;;
22284;SDS011;11311;52.192;20.900;2023-03-21T11:08:09;7.78;;;6.07;;
22284;SDS011;11311;52.192;20.900;2023-03-21T11:10:47;12.10;;;6.75;;
22284;SDS011;11311;52.192;20.900;2023-03-21T11:13:23;9.95;;;6.68;;
22284;SDS011;11311;52.192;20.900;2023-03-21T11:15:54;8.15;;;6.60;;
22284;SDS011;11311;52.192;20.900;2023-03-21T11:18:25;9.43;;;6.57;;
22284;SDS011;11311;52.192;20.900;2023-03-21T11:20:55;6.80;;;5.90;;
22284;SDS011;11311;52.192;20.900;2023-03-21T11:23:27;6.93;;;6.22;;
22284;SDS011;11311;52.192;20.900;2023-03-21T11:25:58;6.35;;;5.75;;
22284;SDS011;11311;52.192;20.900;2023-03-21T11:28:31;6.53;;;5.85;;
22284;SDS011;11311;52.192;20.900;2023-03-21T11:31:03;7.00;;;6.03;;
22284;SDS011;11311;52.192;20.900;2023-03-21T11:33:36;5.85;;;5.35;;
22284;SDS011;11311;52.192;20.900;2023-03-21T11:36:22;5.68;;;5.03;;
22284;SDS011;11311;52.192;20.900;2023-03-21T11:38:57;5.65;;;5.05;;
22284;SDS011;11311;52.192;20.900;2023-03-21T11:41:28;5.82;;;5.32;;
22284;SDS011;11311;52.192;20.900;2023-03-21T11:43:59;5.93;;;5.32;;
22284;SDS011;11311;52.192;20.900;2023-03-21T11:46:29;5.90;;;5.40;;
22284;SDS011;11311;52.192;20.900;2023-03-21T11:48:59;5.82;;;5.32;;
22284;SDS011;11311;52.192;20.900;2023-03-21T11:51:31;6.93;;;5.22;;
22284;SDS011;11311;52.192;20.900;2023-03-21T11:54:08;6.57;;;5.82;;
22284;SDS011;11311;52.192;20.900;2023-03-21T11:56:41;5.93;;;5.22;;
22284;SDS011;11311;52.192;20.900;2023-03-21T11:59:27;7.75;;;5.80;;
22284;SDS011;11311;52.192;20.900;2023-03-21T12:02:06;7.22;;;6.00;;
22284;SDS011;11311;52.192;20.900;2023-03-21T12:04:45;6.30;;;5.40;;
22284;SDS011;11311;52.192;20.900;2023-03-21T12:07:23;5.80;;;5.22;;
22284;SDS011;11311;52.192;20.900;2023-03-21T12:10:04;11.80;;;6.47;;
22284;SDS011;11311;52.192;20.900;2023-03-21T12:12:47;6.55;;;5.90;;
22284;SDS011;11311;52.192;20.900;2023-03-21T12:15:23;5.85;;;5.35;;
22284;SDS011;11311;52.192;20.900;2023-03-21T12:17:56;5.68;;;5.18;;
22284;SDS011;11311;52.192;20.900;2023-03-21T12:20:34;8.90;;;5.63;;
22284;SDS011;11311;52.192;20.900;2023-03-21T12:23:09;7.75;;;5.55;;
22284;SDS011;11311;52.192;20.900;2023-03-21T12:25:45;6.25;;;5.65;;
22284;SDS011;11311;52.192;20.900;2023-03-21T12:28:23;9.25;;;5.90;;
22284;SDS011;11311;52.192;20.900;2023-03-21T12:31:00;6.78;;;5.75;;
22284;SDS011;11311;52.192;20.900;2023-03-21T12:33:39;10.30;;;6.22;;
22284;SDS011;11311;52.192;20.900;2023-03-21T12:39:08;6.72;;;6.03;;
22284;SDS011;11311;52.192;20.900;2023-03-21T12:41:47;7.22;;;6.50;;
22284;SDS011;11311;52.192;20.900;2023-03-21T12:44:22;8.13;;;6.47;;
22284;SDS011;11311;52.192;20.900;2023-03-21T12:46:56;11.70;;;5.50;;
22284;SDS011;11311;52.192;20.900;2023-03-21T12:49:27;9.95;;;6.18;;
22284;SDS011;11311;52.192;20.900;2023-03-21T12:51:59;5.80;;;5.20;;
22284;SDS011;11311;52.192;20.900;2023-03-21T12:54:30;6.82;;;5.90;;
22284;SDS011;11311;52.192;20.900;2023-03-21T12:57:07;6.20;;;5.25;;
22284;SDS011;11311;52.192;20.900;2023-03-21T12:59:38;5.70;;;5.18;;
22284;SDS011;11311;52.192;20.900;2023-03-21T13:02:16;5.60;;;5.10;;
22284;SDS011;11311;52.192;20.900;2023-03-21T13:04:48;5.30;;;4.80;;
22284;SDS011;11311;52.192;20.900;2023-03-21T13:07:28;5.10;;;4.70;;
22284;SDS011;11311;52.192;20.900;2023-03-21T13:09:59;4.70;;;4.30;;
22284;SDS011;11311;52.192;20.900;2023-03-21T13:12:38;4.88;;;4.43;;
22284;SDS011;11311;52.192;20.900;2023-03-21T13:15:16;5.75;;;5.25;;
22284;SDS011;11311;52.192;20.900;2023-03-21T13:17:56;6.78;;;6.00;;
22284;SDS011;11311;52.192;20.900;2023-03-21T13:20:30;6.88;;;5.88;;
22284;SDS011;11311;52.192;20.900;2023-03-21T13:23:03;7.20;;;6.50;;
22284;SDS011;11311;52.192;20.900;2023-03-21T13:25:32;7.28;;;6.57;;
22284;SDS011;11311;52.192;20.900;2023-03-21T13:28:15;6.43;;;5.70;;
22284;SDS011;11311;52.192;20.900;2023-03-21T13:30:46;5.60;;;5.07;;
22284;SDS011;11311;52.192;20.900;2023-03-21T13:33:19;5.90;;;5.40;;
22284;SDS011;11311;52.192;20.900;2023-03-21T13:35:54;6.97;;;5.20;;
22284;SDS011;11311;52.192;20.900;2023-03-21T13:38:31;5.28;;;4.78;;
22284;SDS011;11311;52.192;20.900;2023-03-21T13:41:04;5.78;;;4.40;;
22284;SDS011;11311;52.192;20.900;2023-03-21T13:43:41;5.03;;;4.60;;
22284;SDS011;11311;52.192;20.900;2023-03-21T13:46:12;9.15;;;4.65;;
22284;SDS011;11311;52.192;20.900;2023-03-21T13:48:53;4.90;;;4.50;;
22284;SDS011;11311;52.192;20.900;2023-03-21T13:51:37;4.32;;;3.88;;
22284;SDS011;11311;52.192;20.900;2023-03-21T13:54:17;8.05;;;4.93;;
22284;SDS011;11311;52.192;20.900;2023-03-21T13:56:51;4.13;;;3.72;;
22284;SDS011;11311;52.192;20.900;2023-03-21T13:59:36;3.95;;;3.47;;
22284;SDS011;11311;52.192;20.900;2023-03-21T14:02:22;5.53;;;4.10;;
22284;SDS011;11311;52.192;20.900;2023-03-21T14:04:57;4.50;;;4.10;;
22284;SDS011;11311;52.192;20.900;2023-03-21T14:07:33;4.22;;;3.92;;
22284;SDS011;11311;52.192;20.900;2023-03-21T14:10:05;7.72;;;4.22;;
22284;SDS011;11311;52.192;20.900;2023-03-21T14:12:41;5.00;;;4.30;;
22284;SDS011;11311;52.192;20.900;2023-03-21T14:15:17;3.60;;;3.30;;
22284;SDS011;11311;52.192;20.900;2023-03-21T14:17:51;2.95;;;2.67;;
22284;SDS011;11311;52.192;20.900;2023-03-21T14:20:22;4.10;;;3.33;;
22284;SDS011;11311;52.192;20.900;2023-03-21T14:22:52;4.25;;;3.67;;
22284;SDS011;11311;52.192;20.900;2023-03-21T14:25:22;3.75;;;3.45;;
22284;SDS011;11311;52.192;20.900;2023-03-21T14:28:07;5.47;;;4.00;;
22284;SDS011;11311;52.192;20.900;2023-03-21T14:30:43;5.53;;;4.18;;
22284;SDS011;11311;52.192;20.900;2023-03-21T14:33:14;7.13;;;4.57;;
22284;SDS011;11311;52.192;20.900;2023-03-21T14:35:54;6.90;;;4.53;;
22284;SDS011;11311;52.192;20.900;2023-03-21T14:38:25;5.05;;;4.55;;
22284;SDS011;11311;52.192;20.900;2023-03-21T14:40:56;4.75;;;4.25;;
22284;SDS011;11311;52.192;20.900;2023-03-21T14:43:25;6.57;;;4.82;;
22284;SDS011;11311;52.192;20.900;2023-03-21T14:45:59;7.15;;;6.03;;
22284;SDS011;11311;52.192;20.900;2023-03-21T14:48:28;5.70;;;4.68;;
22284;SDS011;11311;52.192;20.900;2023-03-21T14:51:00;7.32;;;4.22;;
22284;SDS011;11311;52.192;20.900;2023-03-21T14:53:30;5.05;;;4.55;;
22284;SDS011;11311;52.192;20.900;2023-03-21T14:56:01;5.45;;;4.95;;
22284;SDS011;11311;52.192;20.900;2023-03-21T14:58:31;5.10;;;4.13;;
22284;SDS011;11311;52.192;20.900;2023-03-21T15:01:02;7.93;;;4.20;;
22284;SDS011;11311;52.192;20.900;2023-03-21T15:03:33;8.35;;;4.43;;
22284;SDS011;11311;52.192;20.900;2023-03-21T15:06:03;7.72;;;4.90;;
22284;SDS011;11311;52.192;20.900;2023-03-21T15:08:33;5.47;;;4.60;;
22284;SDS011;11311;52.192;20.900;2023-03-21T15:11:03;5.03;;;4.53;;
22284;SDS011;11311;52.192;20.900;2023-03-21T15:13:35;5.32;;;4.80;;
22284;SDS011;11311;52.192;20.900;2023-03-21T15:16:07;6.72;;;4.63;;
22284;SDS011;11311;52.192;20.900;2023-03-21T15:18:37;10.63;;;5.47;;
22284;SDS011;11311;52.192;20.900;2023-03-21T15:21:06;9.23;;;5.32;;
22284;SDS011;11311;52.192;20.900;2023-03-21T15:23:38;8.07;;;6.15;;
22284;SDS011;11311;52.192;20.900;2023-03-21T15:26:11;8.65;;;5.57;;
22284;SDS011;11311;52.192;20.900;2023-03-21T15:28:43;5.38;;;4.88;;
22284;SDS011;11311;52.192;20.900;2023-03-21T15:31:16;8.55;;;5.53;;
22284;SDS011;11311;52.192;20.900;2023-03-21T15:33:46;13.70;;;6.10;;